Terminal Aerodrome Forecast
Issued by NWS Austin/San Antonio, TX

Home | Current Version | Previous Version | Text Only | Print | Product List | Glossary On
Versions: 1 2 3 4 5 6 7 8 9 10 11 12 13 14 15 16 17 18 19 20 21 22 23
000
FTUS44 KEWX 180703 AAA
TAFDRT
TAF AMD
KDRT 180703Z 1807/1906 09005KT 6SM BR OVC015
     FM181100 07005KT 3SM BR OVC009
     FM181500 18005KT P6SM BKN030
     FM181700 18007KT P6SM VCTS SCT030CB BKN150
     FM182200 14010KT P6SM BKN250=

USA.gov is the U.S. government's official web portal to all federal, state and local government web resources and services.